Pagina principale
METAR-TAF:

METAR-TAF

Aeroporti :

Ardabil, Iran

latitudine: 38-19-35N, longitudine: 048-25-28E, altezza: 1315 m

Osservazione

Il bollettino è stato emesso 12 ore e 15 minuti fa, alle 14:00 UTC
Vento 8 kt da est/nord-est
Temperature 18°C
Umidità 39%
Pressione 1022 hPa
Visibilità 10 km o più
nessuna nube inferiore a 1500 m e nessun cumulonembo

METAR: OITL 241400Z 07008KT CAVOK 18/04 Q1022

Ora: 05:45 (02:15 UTC)


TAF: mancante

Osservazioni e previsioni meteorologiche di più di 4000 aeroporti (messaggi METAR e TAF).

Le stazioni disponibili sono rappresentate dai dischi gialli e rossi sulla carta.

Puntare il mouse per vedere il nome della stazione.

Clicca sopra per visualizzare le osservazioni e previsioni meteorologiche.

Per cambiare la mappa : fare clic sui pulsanti verdi con una croce nera per ingrandire, il pulsante verde con un trattino per diminuire, o sulla freccia verde per le mappe adiacenti.


METAR-TAF: